createdAt,value
2023-02-05T00:01:02.860Z,101686.22
2023-02-05T00:06:04.993Z,101686.13
2023-02-05T00:11:09.871Z,101692.28
2023-02-05T00:16:14.666Z,101686.50
2023-02-05T00:21:17.543Z,101679.09
2023-02-05T00:26:20.352Z,101661.53
2023-02-05T00:31:23.775Z,101682.81
2023-02-05T00:36:26.220Z,101694.81
2023-02-05T00:41:27.854Z,101703.59
2023-02-05T00:46:29.508Z,101701.84
2023-02-05T00:51:31.227Z,101707.06
2023-02-05T00:56:33.926Z,101716.31
2023-02-05T01:01:35.634Z,101727.44
2023-02-05T01:06:37.504Z,101719.66
2023-02-05T01:11:39.111Z,101737.84
2023-02-05T01:16:40.745Z,101725.97
2023-02-05T01:21:42.422Z,101736.47
2023-02-05T01:26:44.039Z,101728.06
2023-02-05T01:31:45.660Z,101722.84
2023-02-05T01:36:48.008Z,101731.72
2023-02-05T01:41:49.886Z,101730.94
2023-02-05T01:46:53.912Z,101730.81
2023-02-05T01:51:58.775Z,101719.53
2023-02-05T01:57:05.991Z,101720.50
2023-02-05T02:02:08.301Z,101723.38
2023-02-05T02:07:13.812Z,101719.41
2023-02-05T02:12:23.592Z,101714.78
2023-02-05T02:17:26.508Z,101719.78
2023-02-05T02:22:43.219Z,101727.09
2023-02-05T02:28:02.899Z,101734.44
2023-02-05T02:33:13.153Z,101735.69
2023-02-05T02:38:30.208Z,101748.31
2023-02-05T02:43:50.136Z,101747.56
2023-02-05T02:48:57.347Z,101749.19
2023-02-05T02:54:04.466Z,101751.88
2023-02-05T02:59:10.758Z,101751.59
2023-02-05T03:04:19.906Z,101749.91
2023-02-05T03:09:30.273Z,101758.03
2023-02-05T03:14:31.978Z,101764.38
2023-02-05T03:19:35.605Z,101761.66
2023-02-05T03:24:38.769Z,101764.19
2023-02-05T03:29:44.973Z,101756.59
2023-02-05T03:35:14.528Z,101770.53
2023-02-05T03:40:31.729Z,101788.81
2023-02-05T03:45:56.489Z,101800.72
2023-02-05T03:51:26.043Z,101802.72
2023-02-05T03:56:37.362Z,101791.75
2023-02-05T04:01:39.553Z,101778.50
2023-02-05T04:06:41.209Z,101793.25
2023-02-05T04:11:42.938Z,101792.09
2023-02-05T04:16:45.973Z,101790.94
2023-02-05T04:21:47.838Z,101795.56
2023-02-05T04:26:51.013Z,101785.13
2023-02-05T04:31:53.706Z,101792.25
2023-02-05T04:36:55.372Z,101797.31
2023-02-05T04:41:58.955Z,101794.28
2023-02-05T04:47:00.579Z,101785.47
2023-02-05T04:52:02.412Z,101776.50
2023-02-05T04:57:04.160Z,101776.03
2023-02-05T05:02:05.904Z,101771.97
2023-02-05T05:07:07.604Z,101773.16
2023-02-05T05:12:09.224Z,101776.06
2023-02-05T05:17:12.595Z,101780.53
2023-02-05T05:22:14.288Z,101788.09
2023-02-05T05:27:16.765Z,101784.63
2023-02-05T05:32:18.450Z,101792.16
2023-02-05T05:37:20.120Z,101779.13
2023-02-05T05:42:40.516Z,101788.44
2023-02-05T05:47:42.082Z,101790.00
2023-02-05T05:52:43.781Z,101796.53
2023-02-05T05:57:45.383Z,101799.88
2023-02-05T06:02:47.265Z,101814.50
2023-02-05T06:07:48.878Z,101824.22
2023-02-05T06:12:52.922Z,101814.78
2023-02-05T06:17:54.567Z,101820.88
2023-02-05T06:22:56.164Z,101825.50
2023-02-05T06:27:57.947Z,101828.69
2023-02-05T06:32:59.611Z,101827.97
2023-02-05T06:38:01.372Z,101844.31
2023-02-05T06:43:03.194Z,101855.94
2023-02-05T06:48:05.054Z,101860.28
2023-02-05T06:53:06.670Z,101871.72
2023-02-05T06:58:08.604Z,101869.56
2023-02-05T07:03:10.532Z,101880.69
2023-02-05T07:08:12.210Z,101884.75
2023-02-05T07:13:13.914Z,101885.94
2023-02-05T07:18:15.987Z,101887.94
2023-02-05T07:23:18.166Z,101896.19
2023-02-05T07:28:19.872Z,101898.47
2023-02-05T07:33:21.461Z,101902.38
2023-02-05T07:38:24.941Z,101891.06
2023-02-05T07:43:26.815Z,101894.28
2023-02-05T07:48:28.661Z,101901.59
2023-02-05T07:53:30.438Z,101896.94
2023-02-05T07:58:32.116Z,101912.31
2023-02-05T08:03:34.734Z,101924.16
2023-02-05T08:08:36.679Z,101921.66
2023-02-05T08:13:38.857Z,101918.03
2023-02-05T08:18:40.465Z,101925.09
2023-02-05T08:23:42.097Z,101919.13
2023-02-05T08:28:43.934Z,101916.75
2023-02-05T08:33:47.754Z,101919.59
2023-02-05T08:38:49.659Z,101902.50
2023-02-05T08:43:51.823Z,101906.09
2023-02-05T08:48:54.040Z,101921.88
2023-02-05T08:53:56.684Z,101924.41
2023-02-05T08:58:58.409Z,101925.13
2023-02-05T09:04:00.109Z,101931.06
2023-02-05T09:09:02.381Z,101921.38
2023-02-05T09:14:04.270Z,101924.47
2023-02-05T09:19:06.703Z,101918.97
2023-02-05T09:24:08.511Z,101916.88
2023-02-05T09:29:10.195Z,101900.56
2023-02-05T09:34:11.890Z,101911.34
2023-02-05T09:39:25.608Z,101901.69
2023-02-05T09:45:07.755Z,101899.44
2023-02-05T09:50:26.235Z,101900.94
2023-02-05T09:55:30.934Z,101895.19
2023-02-05T10:00:39.791Z,101884.31
2023-02-05T10:05:53.876Z,101877.38
2023-02-05T10:10:57.388Z,101866.25
2023-02-05T10:16:08.277Z,101863.78
2023-02-05T10:21:34.006Z,101851.91
2023-02-05T10:26:48.892Z,101841.25
2023-02-05T10:32:15.301Z,101843.97
2023-02-05T10:37:19.369Z,101855.41
2023-02-05T10:42:31.761Z,101860.09
2023-02-05T10:47:36.809Z,101852.16
2023-02-05T10:52:38.496Z,101844.06
2023-02-05T10:57:40.785Z,101839.84
2023-02-05T11:02:48.068Z,101836.69
2023-02-05T11:07:52.403Z,101828.13
2023-02-05T11:13:17.562Z,101822.19
2023-02-05T11:18:24.581Z,101788.31
2023-02-05T11:23:31.039Z,101773.50
2023-02-05T11:28:36.248Z,101778.16
2023-02-05T11:33:37.976Z,101778.56
2023-02-05T11:38:47.556Z,101777.72
2023-02-05T11:43:51.558Z,101761.13
2023-02-05T11:49:02.000Z,101757.63
2023-02-05T11:54:11.924Z,101759.53
2023-02-05T11:59:32.601Z,101750.84
2023-02-05T12:04:44.368Z,101748.28
2023-02-05T12:09:48.577Z,101733.28
2023-02-05T12:15:13.652Z,101732.00
2023-02-05T12:20:26.121Z,101738.44
2023-02-05T12:25:35.932Z,101719.50
2023-02-05T12:30:58.105Z,101721.94
2023-02-05T12:36:18.248Z,101716.16
2023-02-05T12:41:30.937Z,101710.97
2023-02-05T12:46:35.824Z,101721.75
2023-02-05T12:51:53.526Z,101725.31
2023-02-05T12:57:03.964Z,101721.50
2023-02-05T13:02:32.684Z,101731.38
2023-02-05T13:07:39.511Z,101729.59
2023-02-05T13:12:45.726Z,101722.44
2023-02-05T13:18:07.198Z,101711.06
2023-02-05T13:23:27.933Z,101728.13
2023-02-05T13:28:40.724Z,101726.69
2023-02-05T13:33:43.703Z,101732.09
2023-02-05T13:39:05.440Z,101739.31
2023-02-05T13:44:07.035Z,101734.97
2023-02-05T13:49:27.990Z,101753.41
2023-02-05T13:54:38.648Z,101731.69
2023-02-05T13:59:51.572Z,101727.56
2023-02-05T14:04:54.886Z,101731.72
2023-02-05T14:10:00.610Z,101723.59
2023-02-05T14:15:17.711Z,101732.91
2023-02-05T14:20:25.447Z,101734.16
2023-02-05T14:25:36.625Z,101750.22
2023-02-05T14:30:59.110Z,101745.91
2023-02-05T14:36:24.239Z,101732.31
2023-02-05T14:41:45.199Z,101724.22
2023-02-05T14:46:59.887Z,101734.72
2023-02-05T14:52:04.917Z,101730.84
2023-02-05T14:57:29.528Z,101727.66
2023-02-05T15:03:13.488Z,101735.88
2023-02-05T15:08:21.162Z,101732.09
2023-02-05T15:13:24.987Z,101722.19
2023-02-05T15:18:33.967Z,101728.63
2023-02-05T15:23:42.418Z,101726.31
2023-02-05T15:29:10.351Z,101727.69
2023-02-05T15:34:38.636Z,101741.38
2023-02-05T15:39:49.209Z,101758.50
2023-02-05T15:44:51.006Z,101747.72
2023-02-05T15:50:00.927Z,101756.78
2023-02-05T15:55:17.820Z,101742.56
2023-02-05T16:00:29.250Z,101757.91
2023-02-05T16:05:31.931Z,101735.91
2023-02-05T16:10:34.953Z,101741.97
2023-02-05T16:15:46.102Z,101757.06
2023-02-05T16:20:53.947Z,101756.91
2023-02-05T16:26:15.683Z,101762.38
2023-02-05T16:31:21.371Z,101772.88
2023-02-05T16:36:26.466Z,101779.56
2023-02-05T16:41:30.382Z,101768.63
2023-02-05T16:46:36.326Z,101779.03
2023-02-05T16:51:53.628Z,101792.44
2023-02-05T16:57:07.957Z,101788.59
2023-02-05T17:02:41.050Z,101779.78
2023-02-05T17:07:42.957Z,101766.25
2023-02-05T17:12:53.731Z,101784.41
2023-02-05T17:18:06.361Z,101796.75
2023-02-05T17:23:09.325Z,101785.91
2023-02-05T17:28:16.300Z,101790.53
2023-02-05T17:33:23.849Z,101798.19
2023-02-05T17:38:25.510Z,101804.59
2023-02-05T17:43:27.333Z,101797.41
2023-02-05T17:48:28.977Z,101811.25
2023-02-05T17:53:30.709Z,101808.84
2023-02-05T17:58:34.028Z,101819.53
2023-02-05T18:03:35.683Z,101835.63
2023-02-05T18:08:37.514Z,101825.91
2023-02-05T18:13:39.372Z,101828.56
2023-02-05T18:18:42.004Z,101831.50
2023-02-05T18:23:44.039Z,101831.22
2023-02-05T18:28:46.741Z,101827.34
2023-02-05T18:33:49.333Z,101830.28
2023-02-05T18:38:51.062Z,101841.03
2023-02-05T18:43:54.810Z,101844.88
2023-02-05T18:48:56.487Z,101832.72
2023-02-05T18:53:58.682Z,101842.69
2023-02-05T18:59:03.663Z,101842.09
2023-02-05T19:04:10.278Z,101847.97
2023-02-05T19:09:11.972Z,101852.19
2023-02-05T19:14:16.699Z,101846.16
2023-02-05T19:19:21.913Z,101854.69
2023-02-05T19:24:23.593Z,101854.91
2023-02-05T19:29:26.152Z,101871.00
2023-02-05T19:34:28.992Z,101857.56
2023-02-05T19:39:30.634Z,101869.41
2023-02-05T19:44:32.629Z,101870.88
2023-02-05T19:49:34.752Z,101877.59
2023-02-05T19:54:36.407Z,101866.44
2023-02-05T19:59:38.249Z,101876.75
2023-02-05T20:04:41.909Z,101881.69
2023-02-05T20:09:43.654Z,101877.91
2023-02-05T20:14:45.255Z,101885.47
2023-02-05T20:19:46.924Z,101882.72
2023-02-05T20:24:48.607Z,101898.25
2023-02-05T20:30:08.667Z,101899.41
2023-02-05T20:35:10.538Z,101889.84
2023-02-05T20:40:12.651Z,101892.13
2023-02-05T20:45:14.352Z,101900.72
2023-02-05T20:50:16.099Z,101905.31
2023-02-05T20:55:17.693Z,101915.91
2023-02-05T21:00:21.081Z,101926.94
2023-02-05T21:05:22.707Z,101923.72
2023-02-05T21:10:24.335Z,101944.16
2023-02-05T21:15:26.775Z,101955.34
2023-02-05T21:20:28.417Z,101964.56
2023-02-05T21:25:30.017Z,101980.19
2023-02-05T21:30:31.709Z,101979.19
2023-02-05T21:35:37.384Z,101984.19
2023-02-05T21:40:39.047Z,101992.00
2023-02-05T21:45:40.735Z,101997.63
2023-02-05T21:50:42.492Z,102002.53
2023-02-05T21:55:44.160Z,102018.34
2023-02-05T22:00:45.805Z,102022.94
2023-02-05T22:05:47.440Z,102029.94
2023-02-05T22:10:49.029Z,102039.78
2023-02-05T22:16:00.588Z,102043.56
2023-02-05T22:21:13.726Z,102044.03
2023-02-05T22:26:17.237Z,102051.13
2023-02-05T22:31:20.756Z,102065.41
2023-02-05T22:36:25.001Z,102067.25
2023-02-05T22:41:29.994Z,102074.44
2023-02-05T22:46:38.745Z,102080.16
2023-02-05T22:51:41.431Z,102084.22
2023-02-05T22:56:43.480Z,102080.00
2023-02-05T23:01:45.085Z,102081.91
2023-02-05T23:06:47.071Z,102076.78
2023-02-05T23:11:48.828Z,102075.09
2023-02-05T23:16:50.624Z,102071.31
2023-02-05T23:21:52.664Z,102070.28
2023-02-05T23:26:54.672Z,102076.94
2023-02-05T23:31:56.549Z,102086.22
2023-02-05T23:36:58.169Z,102075.22
2023-02-05T23:41:59.798Z,102087.03
2023-02-05T23:47:01.464Z,102064.44
2023-02-05T23:52:03.339Z,102078.31
2023-02-05T23:57:05.341Z,102092.28
